PWSweather.com
Personal Weather Stations
Station Observations
CANDIOTINO
Barrio Candioti Norte, Santa FeAR 3000

Barrio Candioti NorteSanta FeAR 3000

Lat: -31.632778, Lon: -60.695556

Elevation: 69

Station Type: WH-1081

http://www.eltiempoensantafe.com.ar

High Low Average
Temperature 89.1°F31.7°F 76.6°F24.8°F 82.7°F28.2°F
Dew Point 77.4°F25.2°F 69.1°F20.6°F 73.6°F23.1°F
Winds 7.6 mph -12.2 mph - 1.6 mph 2.6 mph 3.5 mph 5.6 mph
Wind Gusts 14.5 mph23.3 mph 3.8 mph6.1 mph 7.6 mph12.2 mph
Humidity 80% 65% 74%
Pressure 29.77 in1008.10 in 29.34 in993.60 in -
Precipitation 0.00 in0.00 in - -
Hour Temp Dew Point Humidity Winds Wind Gusts Pressure Precip Precip Rate Daily Precip Total
12:00 AM 76.8°F24.9°C 69.9°F21.1°C 79% 3.1 mph NE5.0 kmh NE 6.0 mph9.7 kmh 29.77 in1008.1 mb 0.00 in0.0 mm 0.00 in0.0 mm 0.00 in0.0 mm
12:15 AM 76.8°F24.9°C 70.2°F21.2°C 80% 1.6 mph NE2.6 kmh NE 3.8 mph6.1 kmh 29.77 in1008.1 mb 0.00 in0.0 mm 0.00 in0.0 mm 0.00 in0.0 mm
12:30 AM 76.8°F24.9°C 70.2°F21.2°C 80% 3.1 mph NE5.0 kmh NE 8.3 mph13.4 kmh 29.76 in1007.8 mb 0.00 in0.0 mm 0.00 in0.0 mm 0.00 in0.0 mm
12:45 AM 76.8°F24.9°C 70.2°F21.2°C 80% 5.4 mph N8.7 kmh N 7.6 mph12.2 kmh 29.75 in1007.5 mb 0.00 in0.0 mm 0.00 in0.0 mm 0.00 in0.0 mm
01:00 AM 77.0°F25.0°C 70.0°F21.1°C 79% 3.1 mph ENE5.0 kmh ENE 7.6 mph12.2 kmh 29.74 in1007.1 mb 0.00 in0.0 mm 0.00 in0.0 mm 0.00 in0.0 mm
01:15 AM 77.0°F25.0°C 69.7°F20.9°C 78% 5.4 mph ENE8.7 kmh ENE 8.3 mph13.4 kmh 29.74 in1007.1 mb 0.00 in0.0 mm 0.00 in0.0 mm 0.00 in0.0 mm
01:30 AM 77.2°F25.1°C 69.5°F20.8°C 77% 3.1 mph E5.0 kmh E 8.3 mph13.4 kmh 29.73 in1006.8 mb 0.00 in0.0 mm 0.00 in0.0 mm 0.00 in0.0 mm
01:45 AM 77.2°F25.1°C 69.5°F20.8°C 77% 3.1 mph NNE5.0 kmh NNE 5.4 mph8.7 kmh 29.75 in1007.5 mb 0.00 in0.0 mm 0.00 in0.0 mm 0.00 in0.0 mm
02:00 AM 77.2°F25.1°C 69.1°F20.6°C 76% 3.1 mph N5.0 kmh N 5.4 mph8.7 kmh 29.75 in1007.5 mb 0.00 in0.0 mm 0.00 in0.0 mm 0.00 in0.0 mm
02:15 AM 76.8°F24.9°C 69.9°F21.1°C 79% 3.1 mph NNE5.0 kmh NNE 4.5 mph7.2 kmh 29.72 in1006.4 mb 0.00 in0.0 mm 0.00 in0.0 mm 0.00 in0.0 mm
02:30 AM 76.6°F24.8°C 69.7°F20.9°C 79% 2.2 mph NE3.5 kmh NE 4.5 mph7.2 kmh 29.72 in1006.4 mb 0.00 in0.0 mm 0.00 in0.0 mm 0.00 in0.0 mm
02:45 AM 76.6°F24.8°C 70.1°F21.2°C 80% 2.2 mph E3.5 kmh E 6.0 mph9.7 kmh 29.71 in1006.1 mb 0.00 in0.0 mm 0.00 in0.0 mm 0.00 in0.0 mm
07:45 PM 89.1°F31.7°C 75.8°F24.3°C 65% 3.1 mph NE5.0 kmh NE 6.0 mph9.7 kmh 29.39 in995.3 mb 0.00 in0.0 mm 0.00 in0.0 mm 0.00 in0.0 mm
08:00 PM 88.0°F31.1°C 75.3°F24.1°C 66% 2.2 mph NNE3.5 kmh NNE 8.3 mph13.4 kmh 29.38 in994.9 mb 0.00 in0.0 mm 0.00 in0.0 mm 0.00 in0.0 mm
08:15 PM 87.6°F30.9°C 75.8°F24.3°C 68% 4.5 mph NE7.2 kmh NE 7.6 mph12.2 kmh 29.38 in994.9 mb 0.00 in0.0 mm 0.00 in0.0 mm 0.00 in0.0 mm
08:30 PM 87.3°F30.7°C 75.9°F24.4°C 69% 3.8 mph NE6.1 kmh NE 8.3 mph13.4 kmh 29.39 in995.3 mb 0.00 in0.0 mm 0.00 in0.0 mm 0.00 in0.0 mm
08:45 PM 87.1°F30.6°C 76.2°F24.6°C 70% 3.1 mph N5.0 kmh N 6.0 mph9.7 kmh 29.39 in995.3 mb 0.00 in0.0 mm 0.00 in0.0 mm 0.00 in0.0 mm
09:00 PM 87.1°F30.6°C 76.2°F24.6°C 70% 4.5 mph NE7.2 kmh NE 8.3 mph13.4 kmh 29.41 in995.9 mb 0.00 in0.0 mm 0.00 in0.0 mm 0.00 in0.0 mm
09:15 PM 87.1°F30.6°C 76.2°F24.6°C 70% 1.6 mph NNE2.6 kmh NNE 6.0 mph9.7 kmh 29.41 in995.9 mb 0.00 in0.0 mm 0.00 in0.0 mm 0.00 in0.0 mm
09:30 PM 87.3°F30.7°C 76.8°F24.9°C 71% 3.8 mph NE6.1 kmh NE 7.6 mph12.2 kmh 29.41 in995.9 mb 0.00 in0.0 mm 0.00 in0.0 mm 0.00 in0.0 mm
09:45 PM 87.3°F30.7°C 76.8°F24.9°C 71% 3.1 mph NE5.0 kmh NE 9.2 mph14.8 kmh 29.41 in995.9 mb 0.00 in0.0 mm 0.00 in0.0 mm 0.00 in0.0 mm
10:00 PM 87.3°F30.7°C 77.2°F25.1°C 72% 3.1 mph NE5.0 kmh NE 8.3 mph13.4 kmh 29.40 in995.6 mb 0.00 in0.0 mm 0.00 in0.0 mm 0.00 in0.0 mm
10:15 PM 87.1°F30.6°C 77.4°F25.2°C 73% 3.1 mph N5.0 kmh N 10.7 mph17.2 kmh 29.39 in995.3 mb 0.00 in0.0 mm 0.00 in0.0 mm 0.00 in0.0 mm
10:30 PM 87.1°F30.6°C 77.4°F25.2°C 73% 3.1 mph NE5.0 kmh NE 7.6 mph12.2 kmh 29.39 in995.3 mb 0.00 in0.0 mm 0.00 in0.0 mm 0.00 in0.0 mm
10:45 PM 87.1°F30.6°C 77.4°F25.2°C 73% 4.5 mph NNE7.2 kmh NNE 9.2 mph14.8 kmh 29.38 in994.9 mb 0.00 in0.0 mm 0.00 in0.0 mm 0.00 in0.0 mm
11:00 PM 87.1°F30.6°C 77.4°F25.2°C 73% 7.6 mph N12.2 kmh N 14.5 mph23.3 kmh 29.34 in993.6 mb 0.00 in0.0 mm 0.00 in0.0 mm 0.00 in0.0 mm
11:15 PM 86.9°F30.5°C 77.3°F25.2°C 73% 3.8 mph N6.1 kmh N 11.4 mph18.3 kmh 29.34 in993.6 mb 0.00 in0.0 mm 0.00 in0.0 mm 0.00 in0.0 mm